createdAt,value
2017-08-30T17:23:39.534Z,31.00
2017-08-30T17:26:07.072Z,31.00
2017-08-30T17:28:34.569Z,30.90
2017-08-30T17:31:02.113Z,30.90
2017-08-30T17:33:29.607Z,30.90
2017-08-30T17:35:57.149Z,30.90
2017-08-30T17:38:24.697Z,30.80
2017-08-30T17:40:52.259Z,30.80
2017-08-30T17:43:19.797Z,30.80
2017-08-30T17:45:47.309Z,30.70
2017-08-30T17:48:14.839Z,30.60
2017-08-30T17:50:42.385Z,30.60
2017-08-30T17:53:09.906Z,30.60
2017-08-30T17:55:37.397Z,30.60
2017-08-30T17:58:04.931Z,30.50
2017-08-30T18:00:32.429Z,30.50
2017-08-30T18:02:59.940Z,30.40
2017-08-30T18:05:27.531Z,30.40
2017-08-30T18:07:55.053Z,30.30
2017-08-30T18:10:22.558Z,30.30
2017-08-30T18:12:50.211Z,30.30
2017-08-30T18:15:17.766Z,30.20
2017-08-30T18:17:45.266Z,30.10
2017-08-30T18:20:12.882Z,30.10
2017-08-30T18:22:40.388Z,30.00
2017-08-30T18:25:08.010Z,30.00
2017-08-30T18:27:35.505Z,29.90
2017-08-30T18:30:03.056Z,29.80
2017-08-30T18:32:30.660Z,29.80
2017-08-30T18:34:58.327Z,29.80
2017-08-30T18:37:25.816Z,29.70
2017-08-30T18:39:53.326Z,29.70
2017-08-30T18:42:20.888Z,29.70
2017-08-30T18:44:48.410Z,29.60
2017-08-30T18:47:15.941Z,29.60
2017-08-30T18:49:43.441Z,29.60
2017-08-30T18:52:11.048Z,29.60
2017-08-30T18:54:38.598Z,29.50
2017-08-30T18:57:06.097Z,29.50
2017-08-30T18:59:33.598Z,29.40
2017-08-30T19:02:01.132Z,29.40
2017-08-30T19:04:28.748Z,29.30
2017-08-30T19:06:56.297Z,29.30
2017-08-30T19:09:23.793Z,29.30
2017-08-30T19:11:51.351Z,29.20
2017-08-30T19:14:18.848Z,29.20
2017-08-30T19:16:46.358Z,29.10
2017-08-30T19:19:13.973Z,29.10
2017-08-30T19:21:41.500Z,29.10
2017-08-30T19:24:09.036Z,29.10
2017-08-30T19:26:36.563Z,29.00
2017-08-30T19:29:04.104Z,29.00
2017-08-30T19:31:31.648Z,29.00
2017-08-30T19:33:59.149Z,28.90
2017-08-30T19:36:26.651Z,28.90
2017-08-30T19:38:54.185Z,28.80
2017-08-30T19:41:21.694Z,28.80
2017-08-30T19:43:49.256Z,28.70
2017-08-30T19:46:16.800Z,28.70
2017-08-30T19:48:44.318Z,28.70
2017-08-30T19:51:11.841Z,28.60
2017-08-30T19:53:39.385Z,28.60
2017-08-30T19:56:06.936Z,28.50
2017-08-30T19:58:34.501Z,28.50
2017-08-30T20:01:02.148Z,28.40
2017-08-30T20:03:29.657Z,28.40
2017-08-30T20:05:57.146Z,28.40
2017-08-30T20:08:24.700Z,28.40
2017-08-30T20:10:52.205Z,28.40
2017-08-30T20:13:20.539Z,28.30
2017-08-30T20:15:48.073Z,28.30
2017-08-30T20:18:15.578Z,28.20
2017-08-30T20:20:43.164Z,28.20
2017-08-30T20:23:10.674Z,28.20
2017-08-30T20:25:38.221Z,28.10
2017-08-30T20:28:05.762Z,28.10
2017-08-30T20:30:33.270Z,28.10
2017-08-30T20:33:00.813Z,28.00
2017-08-30T20:35:28.323Z,28.00
2017-08-30T20:37:55.943Z,28.00
2017-08-30T20:40:23.446Z,27.90
2017-08-30T20:42:50.942Z,27.90
2017-08-30T20:45:18.609Z,27.90
2017-08-30T20:47:46.119Z,27.80
2017-08-30T20:50:13.645Z,27.80
2017-08-30T20:52:41.149Z,27.80
2017-08-30T20:55:08.690Z,27.80
2017-08-30T20:57:36.275Z,27.70
2017-08-30T21:00:03.777Z,27.60
2017-08-30T21:02:31.265Z,27.40
2017-08-30T21:04:58.801Z,27.30
2017-08-30T21:07:26.310Z,27.30
2017-08-30T21:09:53.896Z,27.10
2017-08-30T21:12:21.420Z,27.00
2017-08-30T21:14:48.965Z,26.80
2017-08-30T21:17:16.477Z,26.60
2017-08-30T21:19:44.049Z,26.50
2017-08-30T21:22:11.582Z,26.30
2017-08-30T21:24:39.073Z,26.20
2017-08-30T21:27:06.631Z,26.00
2017-08-30T21:29:34.127Z,25.90
2017-08-30T21:32:01.627Z,25.90
2017-08-30T21:34:29.180Z,25.90
2017-08-30T21:36:56.679Z,25.70
2017-08-30T21:39:24.172Z,25.60
2017-08-30T21:41:51.716Z,25.60
2017-08-30T21:44:19.303Z,25.50
2017-08-30T21:46:46.815Z,25.40
2017-08-30T21:49:14.300Z,25.50
2017-08-30T21:51:41.848Z,25.40
2017-08-30T21:54:09.388Z,25.40
2017-08-30T21:56:37.739Z,25.40
2017-08-30T21:59:05.255Z,25.30
2017-08-30T22:01:32.765Z,25.10
2017-08-30T22:04:00.322Z,24.80
2017-08-30T22:06:27.833Z,24.60
2017-08-30T22:08:55.343Z,24.50
2017-08-30T22:11:22.874Z,24.50
2017-08-30T22:13:50.386Z,24.50
2017-08-30T22:16:17.885Z,24.50
2017-08-30T22:18:45.414Z,24.40
2017-08-30T22:21:12.984Z,24.40
2017-08-30T22:23:40.513Z,24.40
2017-08-30T22:26:08.019Z,24.40
2017-08-30T22:28:35.537Z,24.30
2017-08-30T22:31:03.046Z,24.20
2017-08-30T22:33:30.554Z,24.20
2017-08-30T22:35:58.144Z,24.20
2017-08-30T22:38:25.648Z,24.20
2017-08-30T22:40:53.253Z,24.20
2017-08-30T22:43:20.754Z,24.20
2017-08-30T22:45:48.253Z,24.20
2017-08-30T22:48:15.835Z,24.30
2017-08-30T22:50:43.333Z,24.30
2017-08-30T22:53:10.853Z,24.30
2017-08-30T22:55:38.402Z,24.30
2017-08-30T22:58:05.948Z,24.20
2017-08-30T23:00:33.504Z,24.20
2017-08-30T23:03:01.002Z,24.20
2017-08-30T23:05:28.632Z,24.20
2017-08-30T23:07:56.144Z,24.20
2017-08-30T23:10:23.740Z,23.90
2017-08-30T23:12:51.242Z,23.80
2017-08-30T23:15:18.775Z,23.80
2017-08-30T23:17:46.324Z,23.70
2017-08-30T23:20:13.825Z,23.60
2017-08-30T23:22:41.361Z,23.50
2017-08-30T23:25:08.877Z,23.50
2017-08-30T23:27:37.128Z,23.70
2017-08-30T23:30:04.653Z,23.70
2017-08-30T23:32:32.154Z,23.70
2017-08-30T23:34:59.745Z,23.80
2017-08-30T23:37:27.273Z,23.80
2017-08-30T23:39:54.768Z,23.80
2017-08-30T23:42:22.291Z,23.80
2017-08-30T23:44:49.872Z,23.70
2017-08-30T23:47:17.360Z,23.80
2017-08-30T23:49:44.891Z,23.80
2017-08-30T23:52:12.376Z,23.80
2017-08-30T23:54:39.888Z,23.80
2017-08-30T23:57:07.456Z,23.80
2017-08-30T23:59:35.032Z,23.90
